createdAt,value
2019-04-04T00:01:53.464Z,9.58
2019-04-04T00:03:57.666Z,9.23
2019-04-04T00:06:01.480Z,10.68
2019-04-04T00:08:05.569Z,9.35
2019-04-04T00:10:09.695Z,9.98
2019-04-04T00:12:13.792Z,10.70
2019-04-04T00:14:18.024Z,10.00
2019-04-04T00:16:23.765Z,12.18
2019-04-04T00:18:30.222Z,10.43
2019-04-04T00:20:34.027Z,12.65
2019-04-04T00:22:38.253Z,10.58
2019-04-04T00:24:44.523Z,10.30
2019-04-04T00:26:47.985Z,9.28
2019-04-04T00:28:51.813Z,10.65
2019-04-04T00:30:59.363Z,11.45
2019-04-04T00:33:03.512Z,12.93
2019-04-04T00:35:07.818Z,11.00
2019-04-04T00:37:11.924Z,9.80
2019-04-04T00:39:16.138Z,10.35
2019-04-04T00:41:19.963Z,12.80
2019-04-04T00:43:24.204Z,11.18
2019-04-04T00:45:28.971Z,13.13
2019-04-04T00:47:33.850Z,14.13
2019-04-04T00:49:38.531Z,12.50
2019-04-04T00:51:42.399Z,11.55
2019-04-04T00:53:48.475Z,11.85
2019-04-04T00:55:52.607Z,14.90
2019-04-04T00:57:56.810Z,11.33
2019-04-04T01:00:00.638Z,12.98
2019-04-04T01:02:06.105Z,12.65
2019-04-04T01:04:09.952Z,11.55
2019-04-04T01:06:14.065Z,12.53
2019-04-04T01:08:18.280Z,13.45
2019-04-04T01:10:22.143Z,12.98
2019-04-04T01:12:26.309Z,19.55
2019-04-04T01:14:30.528Z,14.55
2019-04-04T01:16:34.369Z,13.80
2019-04-04T01:18:38.529Z,13.58
2019-04-04T01:20:42.741Z,11.88
2019-04-04T01:22:48.341Z,12.63
2019-04-04T01:24:52.503Z,13.32
2019-04-04T01:26:56.623Z,13.53
2019-04-04T01:29:05.927Z,12.78
2019-04-04T01:31:10.259Z,12.70
2019-04-04T01:33:14.085Z,12.93
2019-04-04T01:35:18.269Z,12.58
2019-04-04T01:37:22.385Z,11.85
2019-04-04T01:39:26.789Z,13.93
2019-04-04T01:41:31.014Z,12.68
2019-04-04T01:43:34.849Z,13.00
2019-04-04T01:45:39.021Z,12.13
2019-04-04T01:47:43.234Z,13.22
2019-04-04T01:49:47.364Z,11.40
2019-04-04T01:51:51.456Z,11.57
2019-04-04T01:53:59.037Z,11.85
2019-04-04T01:56:07.218Z,11.88
2019-04-04T01:58:11.267Z,9.40
2019-04-04T02:00:15.836Z,9.28
2019-04-04T02:02:20.209Z,11.03
2019-04-04T02:04:24.847Z,9.28
2019-04-04T02:06:29.164Z,10.15
2019-04-04T02:08:35.209Z,10.50
2019-04-04T02:10:39.313Z,10.93
2019-04-04T02:12:43.533Z,13.05
2019-04-04T02:14:47.740Z,12.75
2019-04-04T02:16:51.946Z,11.88
2019-04-04T02:18:56.175Z,12.70
2019-04-04T02:21:00.279Z,13.43
2019-04-04T02:23:04.474Z,11.80
2019-04-04T02:25:09.105Z,12.18
2019-04-04T02:27:12.939Z,14.53
2019-04-04T02:29:16.779Z,11.65
2019-04-04T02:31:21.896Z,12.70
2019-04-04T02:33:26.155Z,11.33
2019-04-04T02:35:30.293Z,12.65
2019-04-04T02:37:34.134Z,11.20
2019-04-04T02:39:38.771Z,11.63
2019-04-04T02:41:47.755Z,12.37
2019-04-04T02:43:50.313Z,11.22
2019-04-04T02:45:54.508Z,11.00
2019-04-04T02:47:58.364Z,12.90
2019-04-04T02:50:02.412Z,10.32
2019-04-04T02:52:06.537Z,10.25
2019-04-04T02:54:11.246Z,11.65
2019-04-04T02:56:23.284Z,12.23
2019-04-04T02:58:27.472Z,10.75
2019-04-04T03:00:31.296Z,13.08
2019-04-04T03:02:36.919Z,15.13
2019-04-04T03:04:41.242Z,16.70
2019-04-04T03:06:47.177Z,13.80
2019-04-04T03:08:53.419Z,13.48
2019-04-04T03:11:02.210Z,12.65
2019-04-04T03:13:06.133Z,13.60
2019-04-04T03:15:11.481Z,13.50
2019-04-04T03:17:15.628Z,13.18
2019-04-04T03:19:19.827Z,14.53
2019-04-04T03:21:23.884Z,13.53
2019-04-04T03:23:27.812Z,13.55
2019-04-04T03:25:31.944Z,13.00
2019-04-04T03:27:39.647Z,11.97
2019-04-04T03:29:43.479Z,12.28
2019-04-04T03:31:47.680Z,13.30
2019-04-04T03:33:51.892Z,12.43
2019-04-04T03:35:57.633Z,12.03
2019-04-04T03:38:01.834Z,13.35
2019-04-04T03:40:07.603Z,11.48
2019-04-04T03:42:13.332Z,13.60
2019-04-04T03:44:19.496Z,12.58
2019-04-04T03:46:23.298Z,11.68
2019-04-04T03:48:27.612Z,13.22
2019-04-04T03:50:31.843Z,12.20
2019-04-04T03:52:36.030Z,12.47
2019-04-04T03:54:42.488Z,10.53
2019-04-04T03:56:49.899Z,10.80
2019-04-04T03:58:53.995Z,11.50
2019-04-04T04:00:58.221Z,12.35
2019-04-04T04:03:04.051Z,11.63
2019-04-04T04:05:25.359Z,12.03
2019-04-04T04:07:32.460Z,10.72
2019-04-04T04:09:39.332Z,12.98
2019-04-04T04:11:42.930Z,13.72
2019-04-04T04:13:49.973Z,10.78
2019-04-04T04:15:52.583Z,11.20
2019-04-04T04:17:56.696Z,11.95
2019-04-04T04:20:04.121Z,11.12
2019-04-04T04:22:06.766Z,12.58
2019-04-04T04:24:10.604Z,11.70
2019-04-04T04:26:14.431Z,10.98
2019-04-04T04:28:20.093Z,11.00
2019-04-04T04:30:24.425Z,10.40
2019-04-04T04:32:28.654Z,10.98
2019-04-04T04:34:33.936Z,11.70
2019-04-04T04:36:38.514Z,12.10
2019-04-04T04:38:42.714Z,10.70
2019-04-04T04:40:54.303Z,9.90
2019-04-04T04:43:00.828Z,9.65
2019-04-04T04:45:11.017Z,11.28
2019-04-04T04:47:24.147Z,10.65
2019-04-04T04:49:28.037Z,11.55
2019-04-04T04:51:32.256Z,11.43
2019-04-04T04:53:36.367Z,10.93
2019-04-04T04:55:40.582Z,10.93
2019-04-04T04:57:44.691Z,10.13
2019-04-04T04:59:48.795Z,9.90
2019-04-04T05:01:53.023Z,11.15
2019-04-04T05:03:57.295Z,11.65
2019-04-04T05:06:03.457Z,10.40
2019-04-04T05:08:09.628Z,11.70
2019-04-04T05:10:15.079Z,10.55
2019-04-04T05:12:21.682Z,12.40
2019-04-04T05:14:25.553Z,12.23
2019-04-04T05:16:29.661Z,11.60
2019-04-04T05:18:33.868Z,11.65
2019-04-04T05:20:37.977Z,13.25
2019-04-04T05:22:41.801Z,13.28
2019-04-04T05:24:49.129Z,12.43
2019-04-04T05:26:51.857Z,11.70
2019-04-04T05:28:57.104Z,12.40
2019-04-04T05:31:01.503Z,12.33
2019-04-04T05:33:05.628Z,12.10
2019-04-04T05:35:10.950Z,10.70
2019-04-04T05:37:15.127Z,9.98
2019-04-04T05:39:19.312Z,10.45
2019-04-04T05:41:27.080Z,8.40
2019-04-04T05:43:32.101Z,9.13
2019-04-04T05:45:36.227Z,8.38
2019-04-04T05:47:40.330Z,8.33
2019-04-04T05:49:44.176Z,8.85
2019-04-04T05:51:51.139Z,11.40
2019-04-04T05:53:55.329Z,8.43
2019-04-04T05:55:59.441Z,8.28
2019-04-04T05:58:03.909Z,7.62
2019-04-04T06:00:11.238Z,10.00
2019-04-04T06:02:15.338Z,8.58
2019-04-04T06:04:20.223Z,7.80
2019-04-04T06:06:24.148Z,9.28
2019-04-04T06:08:28.286Z,8.28
2019-04-04T06:10:32.505Z,8.45
2019-04-04T06:12:37.600Z,10.80
2019-04-04T06:14:41.856Z,10.80
2019-04-04T06:16:45.681Z,9.65
2019-04-04T06:18:51.065Z,9.53
2019-04-04T06:20:55.190Z,7.25
2019-04-04T06:22:59.451Z,8.75
2019-04-04T06:25:04.043Z,8.40
2019-04-04T06:27:09.096Z,8.45
2019-04-04T06:29:15.207Z,8.13
2019-04-04T06:31:21.439Z,8.95
2019-04-04T06:33:26.406Z,8.18
2019-04-04T06:35:31.652Z,6.70
2019-04-04T06:37:38.420Z,7.10
2019-04-04T06:39:41.402Z,8.78
2019-04-04T06:41:45.516Z,8.20
2019-04-04T06:43:49.645Z,7.35
2019-04-04T06:45:54.244Z,9.43
2019-04-04T06:47:58.365Z,9.18
2019-04-04T06:50:02.201Z,9.25
2019-04-04T06:52:06.366Z,13.88
2019-04-04T06:54:12.042Z,12.07
2019-04-04T06:56:15.881Z,11.85
2019-04-04T06:58:20.047Z,11.68
2019-04-04T07:00:23.866Z,11.90
2019-04-04T07:02:28.062Z,11.78
2019-04-04T07:04:35.774Z,11.80
2019-04-04T07:06:38.139Z,12.05
2019-04-04T07:08:42.332Z,12.35
2019-04-04T07:10:57.456Z,11.80
2019-04-04T07:13:05.913Z,11.75
2019-04-04T07:14:57.637Z,12.23
2019-04-04T07:17:01.869Z,13.08
2019-04-04T07:19:07.951Z,13.03
2019-04-04T07:21:12.066Z,15.18
2019-04-04T07:23:16.224Z,12.18
2019-04-04T07:25:20.062Z,13.98
2019-04-04T07:27:24.240Z,13.65
2019-04-04T07:29:28.458Z,15.55
2019-04-04T07:31:33.951Z,14.20
2019-04-04T07:33:38.210Z,15.80
2019-04-04T07:35:42.428Z,14.90
2019-04-04T07:37:46.543Z,13.60
2019-04-04T07:39:50.532Z,14.35
2019-04-04T07:41:54.653Z,15.20
2019-04-04T07:43:58.776Z,15.98
2019-04-04T07:46:15.619Z,15.08
2019-04-04T07:48:12.448Z,17.20
2019-04-04T07:50:19.900Z,14.47
2019-04-04T07:52:23.718Z,12.98
2019-04-04T07:54:28.013Z,14.58
2019-04-04T07:56:32.128Z,15.03
2019-04-04T07:58:36.342Z,15.40
2019-04-04T08:00:40.543Z,17.10
2019-04-04T08:02:45.000Z,13.83
2019-04-04T08:04:49.179Z,12.78
2019-04-04T08:06:56.738Z,13.38
2019-04-04T08:09:00.882Z,14.73
2019-04-04T08:11:06.956Z,14.38
2019-04-04T08:13:11.145Z,13.15
2019-04-04T08:15:15.138Z,12.90
2019-04-04T08:17:20.078Z,13.25
2019-04-04T08:19:24.221Z,14.20
2019-04-04T08:21:28.048Z,13.00
2019-04-04T08:23:32.224Z,13.15
2019-04-04T08:25:36.335Z,11.97
2019-04-04T08:27:40.451Z,13.35
2019-04-04T08:29:44.661Z,11.55
2019-04-04T08:31:49.068Z,14.47
2019-04-04T08:33:53.892Z,11.75
2019-04-04T08:36:05.841Z,11.90
2019-04-04T08:38:03.857Z,12.80
2019-04-04T08:40:08.018Z,11.22
2019-04-04T08:42:12.179Z,11.57
2019-04-04T08:44:15.999Z,11.93
2019-04-04T08:46:20.261Z,9.55
2019-04-04T08:48:24.497Z,9.60
2019-04-04T08:50:28.330Z,10.10
2019-04-04T08:52:32.160Z,9.10
2019-04-04T08:54:36.325Z,9.63
2019-04-04T08:56:40.442Z,8.15
2019-04-04T08:58:44.550Z,9.18
2019-04-04T09:00:49.017Z,7.70
2019-04-04T09:02:53.173Z,8.03
2019-04-04T09:05:10.895Z,7.28
2019-04-04T09:07:04.360Z,9.78
2019-04-04T09:09:08.266Z,10.68
2019-04-04T09:11:12.488Z,15.32
2019-04-04T09:13:16.308Z,6.85
2019-04-04T09:15:20.488Z,7.40
2019-04-04T09:17:24.709Z,5.58
2019-04-04T09:19:28.935Z,6.95
2019-04-04T09:21:33.040Z,7.30
2019-04-04T09:23:39.203Z,7.87
2019-04-04T09:25:43.393Z,6.42
2019-04-04T09:27:47.625Z,6.42
2019-04-04T09:29:51.836Z,6.35
2019-04-04T09:31:55.939Z,6.40
2019-04-04T09:34:00.056Z,7.78
2019-04-04T09:36:04.266Z,5.37
2019-04-04T09:38:08.374Z,5.85
2019-04-04T09:40:12.996Z,5.10
2019-04-04T09:42:16.821Z,5.17
2019-04-04T09:44:21.016Z,4.92
2019-04-04T09:46:25.221Z,4.00
2019-04-04T09:48:29.339Z,4.50
2019-04-04T09:50:33.185Z,3.52
2019-04-04T09:52:37.010Z,4.78
2019-04-04T09:54:41.166Z,4.55
2019-04-04T09:56:45.008Z,5.42
2019-04-04T09:58:49.166Z,5.95
2019-04-04T10:00:53.282Z,5.30
2019-04-04T10:02:57.496Z,6.78
2019-04-04T10:05:01.813Z,5.30
2019-04-04T10:07:07.552Z,5.30
2019-04-04T10:09:16.062Z,6.33
2019-04-04T10:11:20.584Z,5.25
2019-04-04T10:13:24.805Z,5.85
2019-04-04T10:15:29.023Z,5.12
2019-04-04T10:17:37.059Z,5.00
2019-04-04T10:19:41.335Z,5.55
2019-04-04T10:21:45.437Z,6.00
2019-04-04T10:23:49.645Z,5.58
2019-04-04T10:25:53.943Z,5.35
2019-04-04T10:27:58.080Z,5.03
2019-04-04T10:30:01.880Z,8.73
2019-04-04T10:32:05.983Z,5.90
2019-04-04T10:34:11.084Z,5.58
2019-04-04T10:36:15.134Z,6.37
2019-04-04T10:38:19.343Z,5.65
2019-04-04T10:40:23.148Z,5.62
2019-04-04T10:42:26.962Z,6.45
2019-04-04T10:44:30.790Z,5.50
2019-04-04T10:46:34.615Z,6.30
2019-04-04T10:48:40.481Z,5.47
2019-04-04T10:50:44.742Z,5.05
2019-04-04T10:52:48.929Z,4.65
2019-04-04T10:54:53.055Z,7.17
2019-04-04T10:56:57.356Z,5.10
2019-04-04T10:59:01.469Z,6.85
2019-04-04T11:01:07.638Z,4.90
2019-04-04T11:03:13.789Z,5.10
2019-04-04T11:05:18.105Z,6.10
2019-04-04T11:07:22.322Z,6.78
2019-04-04T11:09:26.137Z,7.97
2019-04-04T11:11:31.870Z,4.85
2019-04-04T11:13:35.668Z,4.65
2019-04-04T11:15:39.890Z,4.58
2019-04-04T11:17:47.282Z,5.62
2019-04-04T11:19:52.013Z,5.20
2019-04-04T11:21:56.226Z,5.03
2019-04-04T11:24:00.048Z,3.77
2019-04-04T11:26:04.800Z,3.35
2019-04-04T11:28:08.622Z,4.55
2019-04-04T11:30:13.157Z,4.97
2019-04-04T11:32:17.369Z,3.15
2019-04-04T11:34:21.234Z,3.00
2019-04-04T11:36:25.531Z,3.00
2019-04-04T11:38:29.703Z,4.03
2019-04-04T11:40:34.121Z,2.60
2019-04-04T11:42:37.939Z,2.92
2019-04-04T11:44:42.133Z,1.77
2019-04-04T11:46:46.251Z,2.37
2019-04-04T11:48:50.360Z,2.08
2019-04-04T11:50:54.459Z,2.55
2019-04-04T11:52:58.578Z,2.22
2019-04-04T11:55:02.818Z,2.58
2019-04-04T11:57:07.022Z,1.95
2019-04-04T11:59:11.253Z,1.90
2019-04-04T12:01:17.062Z,1.85
2019-04-04T12:03:23.627Z,3.30
2019-04-04T12:05:28.957Z,1.70
2019-04-04T12:07:32.777Z,2.27
2019-04-04T12:09:38.517Z,2.30
2019-04-04T12:11:42.621Z,1.72
2019-04-04T12:13:46.749Z,1.90
2019-04-04T12:15:50.961Z,2.52
2019-04-04T12:17:55.175Z,2.00
2019-04-04T12:20:01.721Z,1.95
2019-04-04T12:22:05.837Z,1.90
2019-04-04T12:24:09.983Z,3.00
2019-04-04T12:26:14.174Z,2.00
2019-04-04T12:28:20.035Z,2.62
2019-04-04T12:30:24.948Z,2.58
2019-04-04T12:32:30.347Z,2.00
2019-04-04T12:34:34.203Z,2.45
2019-04-04T12:36:38.411Z,2.40
2019-04-04T12:38:42.823Z,2.62
2019-04-04T12:40:47.035Z,2.52
2019-04-04T12:42:51.246Z,1.82
2019-04-04T12:44:55.336Z,3.05
2019-04-04T12:47:01.087Z,3.92
2019-04-04T12:49:05.221Z,4.20
2019-04-04T12:51:09.127Z,2.20
2019-04-04T12:53:13.224Z,2.15
2019-04-04T12:55:17.340Z,2.30
2019-04-04T12:57:21.189Z,2.20
2019-04-04T12:59:25.350Z,4.42
2019-04-04T13:01:29.173Z,3.02
2019-04-04T13:03:33.369Z,2.05
2019-04-04T13:05:37.189Z,1.80
2019-04-04T13:07:41.307Z,2.33
2019-04-04T13:09:45.540Z,1.82
2019-04-04T13:11:49.485Z,1.80
2019-04-04T13:13:53.291Z,1.50
2019-04-04T13:15:57.451Z,1.55
2019-04-04T13:18:01.546Z,1.35
2019-04-04T13:20:11.960Z,1.50
2019-04-04T13:22:16.097Z,1.47
2019-04-04T13:24:20.330Z,1.90
2019-04-04T13:26:24.182Z,1.37
2019-04-04T13:28:28.327Z,2.02
2019-04-04T13:30:32.167Z,0.80
2019-04-04T13:32:36.351Z,1.72
2019-04-04T13:34:40.172Z,1.20
2019-04-04T13:36:44.366Z,1.20
2019-04-04T13:38:48.478Z,0.85
2019-04-04T13:40:52.684Z,1.02
2019-04-04T13:42:57.012Z,1.30
2019-04-04T13:45:01.144Z,1.07
2019-04-04T13:47:05.424Z,1.27
2019-04-04T13:49:09.649Z,2.55
2019-04-04T13:51:13.844Z,1.25
2019-04-04T13:53:20.655Z,2.75
2019-04-04T13:55:25.168Z,1.32
2019-04-04T13:57:30.825Z,1.15
2019-04-04T13:59:34.988Z,1.22
2019-04-04T14:01:38.804Z,1.12
2019-04-04T14:03:46.193Z,1.17
2019-04-04T14:05:54.413Z,0.78
2019-04-04T14:08:00.767Z,1.35
2019-04-04T14:10:09.065Z,1.52
2019-04-04T14:12:15.659Z,0.78
2019-04-04T14:14:19.925Z,1.20
2019-04-04T14:16:24.055Z,2.50
2019-04-04T14:18:39.024Z,1.05
2019-04-04T14:20:35.767Z,1.27
2019-04-04T14:22:40.177Z,1.27
2019-04-04T14:24:44.863Z,1.92
2019-04-04T14:26:49.009Z,1.55
2019-04-04T14:28:53.129Z,1.30
2019-04-04T14:30:59.693Z,2.45
2019-04-04T14:33:03.805Z,1.25
2019-04-04T14:35:09.697Z,2.37
2019-04-04T14:37:17.040Z,1.42
2019-04-04T14:39:21.157Z,1.67
2019-04-04T14:41:25.248Z,1.47
2019-04-04T14:43:30.082Z,0.90
2019-04-04T14:45:34.601Z,1.57
2019-04-04T14:47:38.832Z,1.05
2019-04-04T14:49:45.097Z,1.50
2019-04-04T14:51:48.878Z,1.35
2019-04-04T14:53:52.997Z,2.00
2019-04-04T14:55:57.109Z,2.65
2019-04-04T14:58:01.319Z,1.77
2019-04-04T15:00:10.236Z,1.22
2019-04-04T15:02:14.351Z,1.40
2019-04-04T15:04:18.597Z,1.42
2019-04-04T15:06:22.371Z,1.50
2019-04-04T15:08:26.579Z,1.27
2019-04-04T15:10:30.688Z,1.30
2019-04-04T15:12:35.103Z,1.30
2019-04-04T15:14:38.948Z,1.35
2019-04-04T15:16:43.132Z,1.67
2019-04-04T15:18:48.267Z,1.70
2019-04-04T15:20:53.807Z,1.75
2019-04-04T15:22:57.915Z,1.57
2019-04-04T15:25:02.123Z,1.75
2019-04-04T15:27:06.356Z,1.37
2019-04-04T15:29:11.597Z,1.95
2019-04-04T15:31:16.284Z,1.60
2019-04-04T15:33:21.955Z,1.42
2019-04-04T15:35:26.086Z,1.50
2019-04-04T15:37:30.259Z,1.50
2019-04-04T15:39:34.628Z,2.12
2019-04-04T15:41:38.800Z,2.10
2019-04-04T15:43:42.892Z,1.55
2019-04-04T15:45:47.020Z,1.30
2019-04-04T15:47:51.118Z,1.98
2019-04-04T15:49:55.232Z,1.92
2019-04-04T15:51:59.784Z,2.50
2019-04-04T15:54:03.915Z,5.80
2019-04-04T15:56:08.183Z,3.27
2019-04-04T15:58:12.278Z,2.50
2019-04-04T16:00:18.125Z,2.90
2019-04-04T16:02:22.782Z,3.37
2019-04-04T16:04:29.492Z,10.05
2019-04-04T16:06:33.590Z,3.25
2019-04-04T16:08:37.886Z,2.47
2019-04-04T16:10:42.076Z,2.08
2019-04-04T16:12:45.910Z,3.65
2019-04-04T16:14:50.089Z,1.85
2019-04-04T16:16:55.550Z,2.77
2019-04-04T16:18:59.792Z,3.50
2019-04-04T16:21:03.962Z,10.70
2019-04-04T16:23:08.093Z,7.37
2019-04-04T16:25:12.325Z,3.87
2019-04-04T16:27:16.503Z,4.15
2019-04-04T16:29:20.709Z,2.17
2019-04-04T16:31:28.404Z,1.77
2019-04-04T16:33:32.508Z,1.70
2019-04-04T16:35:40.584Z,2.30
2019-04-04T16:37:44.715Z,1.72
2019-04-04T16:39:48.931Z,6.17
2019-04-04T16:42:02.155Z,3.65
2019-04-04T16:43:58.691Z,10.00
2019-04-04T16:46:02.915Z,9.08
2019-04-04T16:48:06.744Z,10.03
2019-04-04T16:50:10.906Z,83.87
2019-04-04T16:52:15.633Z,66.42
2019-04-04T16:54:19.776Z,25.05
2019-04-04T16:56:23.961Z,9.58
2019-04-04T16:58:28.174Z,4.33
2019-04-04T17:00:38.210Z,2.75
2019-04-04T17:02:42.434Z,2.02
2019-04-04T17:04:47.284Z,2.27
2019-04-04T17:06:51.366Z,2.67
2019-04-04T17:08:55.580Z,2.52
2019-04-04T17:10:59.699Z,1.80
2019-04-04T17:13:03.906Z,2.08
2019-04-04T17:15:08.953Z,3.05
2019-04-04T17:17:12.780Z,2.50
2019-04-04T17:19:16.949Z,3.15
2019-04-04T17:21:21.164Z,1.90
2019-04-04T17:23:25.276Z,3.67
2019-04-04T17:25:29.488Z,2.22
2019-04-04T17:27:33.301Z,6.03
2019-04-04T17:29:37.514Z,2.20
2019-04-04T17:31:43.406Z,3.37
2019-04-04T17:33:47.587Z,2.35
2019-04-04T17:35:51.925Z,2.30
2019-04-04T17:37:55.745Z,2.45
2019-04-04T17:40:01.157Z,2.60
2019-04-04T17:42:05.755Z,2.08
2019-04-04T17:44:10.178Z,2.58
2019-04-04T17:46:16.033Z,2.27
2019-04-04T17:48:20.232Z,2.75
2019-04-04T17:50:25.622Z,2.15
2019-04-04T17:52:29.873Z,3.62
2019-04-04T17:54:33.994Z,1.90
2019-04-04T17:56:37.912Z,2.20
2019-04-04T17:58:41.835Z,1.80
2019-04-04T18:00:46.024Z,2.10
2019-04-04T18:02:50.225Z,3.77
2019-04-04T18:04:54.340Z,2.47
2019-04-04T18:06:58.455Z,2.40
2019-04-04T18:09:02.667Z,2.27
2019-04-04T18:11:06.482Z,2.75
2019-04-04T18:13:10.597Z,2.30
2019-04-04T18:15:15.104Z,2.10
2019-04-04T18:17:18.916Z,3.30
2019-04-04T18:19:23.151Z,2.30
2019-04-04T18:21:26.950Z,2.05
2019-04-04T18:23:31.130Z,3.05
2019-04-04T18:25:35.827Z,3.33
2019-04-04T18:27:42.502Z,4.53
2019-04-04T18:29:47.055Z,3.05
2019-04-04T18:31:50.908Z,3.83
2019-04-04T18:33:56.524Z,8.48
2019-04-04T18:36:01.308Z,4.22
2019-04-04T18:38:05.116Z,3.70
2019-04-04T18:40:11.749Z,2.20
2019-04-04T18:42:15.608Z,2.65
2019-04-04T18:44:20.076Z,2.30
2019-04-04T18:46:24.056Z,3.22
2019-04-04T18:48:28.003Z,2.60
2019-04-04T18:50:31.908Z,2.47
2019-04-04T18:52:36.054Z,2.70
2019-04-04T18:54:39.914Z,4.45
2019-04-04T18:56:44.073Z,4.97
2019-04-04T18:58:48.172Z,3.85
2019-04-04T19:00:53.571Z,3.00
2019-04-04T19:02:57.727Z,2.47
2019-04-04T19:05:01.562Z,2.87
2019-04-04T19:07:05.850Z,2.62
2019-04-04T19:09:15.144Z,4.95
2019-04-04T19:11:18.161Z,3.98
2019-04-04T19:13:22.540Z,3.72
2019-04-04T19:15:26.888Z,2.60
2019-04-04T19:17:31.116Z,4.12
2019-04-04T19:19:35.210Z,2.72
2019-04-04T19:21:39.535Z,3.72
2019-04-04T19:23:49.123Z,2.60
2019-04-04T19:25:49.281Z,2.52
2019-04-04T19:27:55.840Z,3.52
2019-04-04T19:30:00.068Z,3.00
2019-04-04T19:32:04.378Z,3.92
2019-04-04T19:34:08.528Z,4.15
2019-04-04T19:36:12.599Z,3.12
2019-04-04T19:38:16.816Z,3.10
2019-04-04T19:40:21.231Z,4.35
2019-04-04T19:42:25.342Z,3.12
2019-04-04T19:44:29.477Z,3.90
2019-04-04T19:46:37.222Z,4.00
2019-04-04T19:48:40.194Z,3.17
2019-04-04T19:50:44.372Z,2.72
2019-04-04T19:52:48.562Z,3.12
2019-04-04T19:54:53.490Z,2.58
2019-04-04T19:56:57.986Z,3.30
2019-04-04T19:59:02.131Z,3.72
2019-04-04T20:01:06.216Z,2.90
2019-04-04T20:03:10.026Z,3.62
2019-04-04T20:05:15.067Z,3.25
2019-04-04T20:07:19.068Z,3.70
2019-04-04T20:09:23.528Z,4.20
2019-04-04T20:11:27.803Z,4.08
2019-04-04T20:13:31.918Z,3.30
2019-04-04T20:15:36.051Z,4.05
2019-04-04T20:17:41.536Z,4.45
2019-04-04T20:19:45.594Z,3.35
2019-04-04T20:21:49.882Z,3.72
2019-04-04T20:23:55.341Z,2.95
2019-04-04T20:25:59.154Z,3.45
2019-04-04T20:28:02.976Z,3.58
2019-04-04T20:30:09.082Z,4.00
2019-04-04T20:32:12.927Z,3.92
2019-04-04T20:34:17.096Z,4.30
2019-04-04T20:36:20.934Z,4.60
2019-04-04T20:38:25.189Z,5.12
2019-04-04T20:40:29.240Z,4.42
2019-04-04T20:42:33.329Z,4.97
2019-04-04T20:44:37.550Z,6.33
2019-04-04T20:46:41.722Z,5.80
2019-04-04T20:48:45.871Z,5.33
2019-04-04T20:50:49.995Z,7.83
2019-04-04T20:52:53.809Z,4.78
2019-04-04T20:54:57.898Z,6.15
2019-04-04T20:57:02.031Z,5.60
2019-04-04T20:59:06.101Z,5.60
2019-04-04T21:01:10.215Z,4.75
2019-04-04T21:03:14.351Z,5.58
2019-04-04T21:05:18.177Z,5.28
2019-04-04T21:07:23.174Z,4.58
2019-04-04T21:09:27.418Z,5.17
2019-04-04T21:11:31.211Z,5.75
2019-04-04T21:13:35.401Z,5.12
2019-04-04T21:15:39.230Z,5.12
2019-04-04T21:17:43.436Z,5.83
2019-04-04T21:19:47.266Z,7.05
2019-04-04T21:21:51.355Z,8.75
2019-04-04T21:23:55.537Z,8.93
2019-04-04T21:25:59.749Z,6.75
2019-04-04T21:28:03.904Z,6.30
2019-04-04T21:30:08.892Z,9.38
2019-04-04T21:32:13.003Z,9.30
2019-04-04T21:34:17.444Z,10.98
2019-04-04T21:36:21.611Z,11.40
2019-04-04T21:38:25.771Z,13.62
2019-04-04T21:40:30.243Z,13.43
2019-04-04T21:42:35.182Z,13.40
2019-04-04T21:44:39.348Z,17.00
2019-04-04T21:46:43.513Z,20.32
2019-04-04T21:48:47.670Z,25.20
2019-04-04T21:50:51.850Z,26.52
2019-04-04T21:52:56.062Z,24.65
2019-04-04T21:55:00.170Z,26.57
2019-04-04T21:57:04.281Z,28.73
2019-04-04T21:59:08.129Z,25.95
2019-04-04T22:01:12.325Z,23.05
2019-04-04T22:03:17.106Z,24.98
2019-04-04T22:05:21.333Z,24.87
2019-04-04T22:07:25.545Z,24.47
2019-04-04T22:09:29.669Z,25.77
2019-04-04T22:11:33.866Z,25.92
2019-04-04T22:13:37.976Z,25.65
2019-04-04T22:15:42.210Z,28.40
2019-04-04T22:17:46.917Z,23.12
2019-04-04T22:19:51.019Z,25.55
2019-04-04T22:21:55.233Z,29.48
2019-04-04T22:23:59.349Z,29.27
2019-04-04T22:26:03.753Z,30.12
2019-04-04T22:28:07.869Z,26.48
2019-04-04T22:30:12.711Z,26.45
2019-04-04T22:32:20.501Z,29.90
2019-04-04T22:34:27.385Z,28.70
2019-04-04T22:36:31.589Z,31.27
2019-04-04T22:38:37.532Z,33.00
2019-04-04T22:40:41.360Z,24.63
2019-04-04T22:42:45.373Z,28.10
2019-04-04T22:44:49.559Z,26.10
2019-04-04T22:46:53.427Z,29.30
2019-04-04T22:48:57.985Z,29.72
2019-04-04T22:51:02.211Z,34.25
2019-04-04T22:53:06.430Z,34.78
2019-04-04T22:55:10.303Z,32.58
2019-04-04T22:57:15.005Z,30.50
2019-04-04T22:59:19.154Z,29.63
2019-04-04T23:01:23.267Z,26.12
2019-04-04T23:03:29.111Z,25.45
2019-04-04T23:05:36.771Z,28.00
2019-04-04T23:07:40.921Z,35.15
2019-04-04T23:09:45.167Z,32.98
2019-04-04T23:11:50.987Z,36.93
2019-04-04T23:13:54.821Z,29.35
2019-04-04T23:15:59.009Z,29.63
2019-04-04T23:18:03.217Z,39.92
2019-04-04T23:20:11.358Z,39.35
2019-04-04T23:22:17.565Z,36.05
2019-04-04T23:24:22.503Z,33.67
2019-04-04T23:26:26.721Z,35.78
2019-04-04T23:28:32.572Z,35.03
2019-04-04T23:30:36.779Z,34.85
2019-04-04T23:32:43.113Z,36.17
2019-04-04T23:34:47.349Z,40.67
2019-04-04T23:36:51.562Z,43.38
2019-04-04T23:38:57.724Z,37.70
2019-04-04T23:41:02.039Z,38.80
2019-04-04T23:43:06.273Z,40.67
2019-04-04T23:45:10.469Z,37.58
2019-04-04T23:47:14.676Z,38.65
2019-04-04T23:49:19.107Z,38.92
2019-04-04T23:51:26.285Z,35.55
2019-04-04T23:53:31.509Z,41.55
2019-04-04T23:55:35.626Z,34.45
2019-04-04T23:57:41.451Z,37.13
2019-04-04T23:59:45.587Z,39.15
